Time;durP1;ratioP1;P1;durP2;ratioP2;P2;SDS_P1;SDS_P2;PMS_P1;PMS_P2;Temp;Humidity;BMP_temperature;BMP_pressure;BME280_temperature;BME280_humidity;BME280_pressure;Samples;Min_cycle;Max_cycle;Signal;HPM_P1;HPM_P2
2021/03/30 00:01:25;;;;;;;10.52;5.22;;;5.00;99.90;;;;;;6097573;23;20152;-75
2021/03/30 00:03:51;;;;;;;8.93;5.88;;;4.90;99.90;;;;;;6097220;23;20439;-75
2021/03/30 00:06:17;;;;;;;8.70;5.60;;;4.90;99.90;;;;;;6097802;23;20466;-75
2021/03/30 00:08:44;;;;;;;8.50;5.15;;;4.90;99.90;;;;;;6097595;23;20058;-74
2021/03/30 00:11:10;;;;;;;10.18;5.43;;;4.90;99.90;;;;;;6097351;23;20002;-75
2021/03/30 00:13:36;;;;;;;6.47;4.93;;;4.80;99.90;;;;;;6097687;23;20010;-75
2021/03/30 00:16:02;;;;;;;7.38;5.47;;;4.80;99.90;;;;;;6099361;23;20029;-75
2021/03/30 00:18:28;;;;;;;10.10;4.80;;;4.70;99.90;;;;;;6099511;23;20002;-75
2021/03/30 00:20:54;;;;;;;7.03;4.93;;;4.70;99.90;;;;;;6099834;23;20081;-75
2021/03/30 00:23:20;;;;;;;14.27;6.63;;;4.70;99.90;;;;;;6099202;23;20419;-75
2021/03/30 00:25:46;;;;;;;12.02;5.20;;;4.60;99.90;;;;;;6098837;23;20346;-75
2021/03/30 00:28:11;;;;;;;14.15;7.15;;;4.70;99.90;;;;;;6099387;23;20405;-75
2021/03/30 00:30:37;;;;;;;12.07;7.13;;;4.70;99.90;;;;;;6098887;23;20085;-75
2021/03/30 00:33:03;;;;;;;17.20;8.30;;;4.70;99.90;;;;;;6073317;23;20057;-75
2021/03/30 00:35:29;;;;;;;9.13;4.68;;;4.70;99.90;;;;;;6099202;23;20038;-75
2021/03/30 00:37:55;;;;;;;18.75;7.97;;;4.70;99.90;;;;;;6073251;23;20002;-75
2021/03/30 00:40:21;;;;;;;8.30;5.03;;;4.60;99.90;;;;;;6098772;23;20002;-75
2021/03/30 00:42:47;;;;;;;17.13;7.65;;;4.60;99.90;;;;;;6098832;23;20014;-75
2021/03/30 00:45:14;;;;;;;9.05;5.88;;;4.40;99.90;;;;;;6099106;23;20014;-75
2021/03/30 00:47:43;;;;;;;17.40;6.90;;;4.40;99.90;;;;;;6098500;23;20002;-75
2021/03/30 00:50:12;;;;;;;13.32;6.30;;;4.40;99.90;;;;;;6099259;23;20013;-74
2021/03/30 00:52:41;;;;;;;8.32;4.97;;;4.40;99.90;;;;;;6099610;23;20066;-75
2021/03/30 00:55:09;;;;;;;23.20;12.60;;;4.40;99.90;;;;;;6073339;23;20442;-75
2021/03/30 00:57:36;;;;;;;8.57;5.07;;;4.30;99.90;;;;;;6098927;23;20009;-75
2021/03/30 01:00:04;;;;;;;6.43;4.22;;;4.30;99.90;;;;;;6073326;23;20049;-75
2021/03/30 01:02:31;;;;;;;9.90;5.82;;;4.40;99.90;;;;;;6073187;23;20014;-74
2021/03/30 01:04:57;;;;;;;11.55;6.68;;;4.30;99.90;;;;;;6098897;23;20011;-75
2021/03/30 01:07:22;;;;;;;13.52;5.95;;;4.30;99.90;;;;;;6073233;23;20003;-75
2021/03/30 01:10:21;;;;;;;7.13;4.18;;;4.20;99.90;;;;;;6099100;23;20007;-75
2021/03/30 01:12:54;;;;;;;32.00;11.32;;;4.20;99.90;;;;;;6073308;23;20093;-75
2021/03/30 01:15:27;;;;;;;13.60;6.00;;;4.10;99.90;;;;;;6098845;23;20010;-75
2021/03/30 01:18:14;;;;;;;23.73;9.15;;;4.10;99.90;;;;;;6098601;23;20085;-75
2021/03/30 01:21:15;;;;;;;7.88;5.20;;;4.00;99.90;;;;;;6098126;23;19998;-76
2021/03/30 01:23:52;;;;;;;8.63;4.43;;;4.10;99.90;;;;;;6099351;23;20036;-75
2021/03/30 01:26:30;;;;;;;8.27;4.95;;;4.10;99.90;;;;;;6098330;23;20073;-75
2021/03/30 01:29:12;;;;;;;9.07;4.78;;;4.00;99.90;;;;;;6072695;23;20013;-75
2021/03/30 01:31:43;;;;;;;116.20;32.95;;;4.00;99.90;;;;;;6098539;23;20438;-75
2021/03/30 01:34:15;;;;;;;15.27;7.40;;;3.90;99.90;;;;;;6098132;23;20007;-76
2021/03/30 01:36:42;;;;;;;8.18;4.95;;;4.00;99.90;;;;;;6098545;23;20002;-75
2021/03/30 01:39:15;;;;;;;9.95;5.05;;;4.00;99.90;;;;;;6048827;23;20006;-75
2021/03/30 01:41:46;;;;;;;120.60;38.15;;;4.00;99.90;;;;;;6098339;23;20062;-75
2021/03/30 01:44:13;;;;;;;32.85;13.63;;;4.00;99.90;;;;;;6048801;23;20017;-75
2021/03/30 01:46:43;;;;;;;15.63;6.85;;;4.00;99.90;;;;;;6099071;23;20010;-75
2021/03/30 01:49:11;;;;;;;8.70;4.60;;;4.00;99.90;;;;;;6072382;23;20009;-75
2021/03/30 01:51:38;;;;;;;6.22;4.00;;;4.00;99.90;;;;;;6098377;23;20041;-75
2021/03/30 01:54:06;;;;;;;12.75;5.82;;;3.90;99.90;;;;;;6097918;23;20006;-75
2021/03/30 01:56:33;;;;;;;7.25;4.63;;;3.90;99.90;;;;;;6072685;23;20017;-75
2021/03/30 01:59:01;;;;;;;10.40;4.63;;;3.70;99.90;;;;;;6097823;23;20025;-76
2021/03/30 02:01:28;;;;;;;5.40;3.88;;;3.80;99.90;;;;;;6098097;23;20013;-76
2021/03/30 02:03:56;;;;;;;8.07;6.63;;;3.80;99.90;;;;;;6097599;23;20434;-76
2021/03/30 02:06:23;;;;;;;7.10;4.65;;;3.70;99.90;;;;;;6097868;23;20031;-75
2021/03/30 02:08:50;;;;;;;9.00;4.50;;;3.70;99.90;;;;;;6098093;23;20010;-75
2021/03/30 02:11:27;;;;;;;10.18;4.55;;;3.70;99.90;;;;;;6072677;23;20085;-75
2021/03/30 02:13:57;;;;;;;6.72;4.60;;;3.60;99.90;;;;;;6072812;23;20361;-74
2021/03/30 02:16:27;;;;;;;5.75;4.10;;;3.60;99.90;;;;;;6072624;23;20015;-75
2021/03/30 02:19:10;;;;;;;7.72;4.70;;;3.70;99.90;;;;;;6098202;23;20510;-75
2021/03/30 02:21:53;;;;;;;6.97;4.43;;;3.60;99.90;;;;;;6097715;23;20002;-75
2021/03/30 02:24:21;;;;;;;5.18;3.92;;;3.70;99.90;;;;;;6073045;23;20076;-75
2021/03/30 02:26:51;;;;;;;9.50;4.55;;;3.50;99.90;;;;;;6072890;23;20003;-75
2021/03/30 02:29:21;;;;;;;7.65;5.18;;;3.60;99.90;;;;;;6072241;23;20010;-75
2021/03/30 02:31:52;;;;;;;12.35;4.47;;;3.60;99.90;;;;;;6098415;23;20058;-75
2021/03/30 02:34:20;;;;;;;7.55;3.80;;;3.50;99.90;;;;;;6072504;23;20008;-75
2021/03/30 02:36:47;;;;;;;7.63;3.80;;;3.40;99.90;;;;;;6097347;23;20002;-75
2021/03/30 02:39:14;;;;;;;6.78;3.67;;;3.40;99.90;;;;;;6072107;23;20010;-75
2021/03/30 02:41:42;;;;;;;7.05;4.03;;;3.40;99.90;;;;;;6072270;23;20009;-75
2021/03/30 02:44:11;;;;;;;5.82;4.15;;;3.40;99.90;;;;;;6072105;23;20014;-75
2021/03/30 02:46:39;;;;;;;7.35;4.38;;;3.40;99.90;;;;;;6097966;23;20009;-75
2021/03/30 02:49:05;;;;;;;5.35;3.78;;;3.50;99.90;;;;;;6072596;23;20316;-75
2021/03/30 02:51:34;;;;;;;6.53;4.13;;;3.50;99.90;;;;;;6072451;23;20025;-74
2021/03/30 02:54:00;;;;;;;7.40;4.47;;;3.40;99.90;;;;;;6098069;23;20014;-75
2021/03/30 02:56:26;;;;;;;4.40;3.90;;;3.40;99.90;;;;;;6072222;23;20077;-75
2021/03/30 02:58:53;;;;;;;5.72;4.03;;;3.30;99.90;;;;;;6072146;23;20023;-75
2021/03/30 03:01:22;;;;;;;7.07;3.75;;;3.30;99.90;;;;;;6097851;23;20061;-75
2021/03/30 03:03:50;;;;;;;7.05;4.50;;;3.10;99.90;;;;;;6071965;23;20041;-75
2021/03/30 03:06:17;;;;;;;7.50;4.38;;;3.10;99.90;;;;;;6098174;23;20081;-75
2021/03/30 03:08:45;;;;;;;7.60;4.60;;;3.00;99.90;;;;;;6097977;23;20017;-75
2021/03/30 03:11:13;;;;;;;8.57;5.32;;;3.10;99.90;;;;;;6072271;23;20002;-75
2021/03/30 03:13:41;;;;;;;7.88;4.50;;;3.20;99.90;;;;;;6097976;23;20007;-75
2021/03/30 03:16:09;;;;;;;6.95;3.70;;;3.20;99.90;;;;;;6097464;23;20033;-75
2021/03/30 03:18:35;;;;;;;12.70;4.40;;;3.20;99.90;;;;;;6097515;23;20029;-75
2021/03/30 03:21:02;;;;;;;10.50;4.40;;;3.10;99.90;;;;;;6072243;23;20057;-75
2021/03/30 03:23:29;;;;;;;8.10;4.00;;;3.10;99.90;;;;;;6097286;23;20009;-75
2021/03/30 03:25:55;;;;;;;6.57;4.47;;;3.20;99.90;;;;;;6072951;23;20011;-75
2021/03/30 03:28:21;;;;;;;6.90;3.33;;;3.10;99.90;;;;;;6071984;23;20469;-75
2021/03/30 03:30:47;;;;;;;8.88;4.15;;;3.10;99.90;;;;;;6072257;23;20010;-75
2021/03/30 03:33:14;;;;;;;5.57;3.90;;;3.10;99.90;;;;;;6097219;23;20013;-76
2021/03/30 03:36:01;;;;;;;10.57;4.72;;;3.10;99.90;;;;;;6072279;23;20061;-75
2021/03/30 03:38:27;;;;;;;6.55;3.88;;;3.10;99.90;;;;;;6096237;23;20006;-75
2021/03/30 03:40:53;;;;;;;8.93;3.63;;;3.00;99.90;;;;;;6097932;23;20010;-76
2021/03/30 03:43:19;;;;;;;6.63;4.22;;;2.90;99.90;;;;;;6071990;23;20370;-75
2021/03/30 03:45:45;;;;;;;10.63;3.80;;;2.90;99.90;;;;;;6072109;23;20370;-75
2021/03/30 03:48:10;;;;;;;5.72;3.67;;;2.90;99.90;;;;;;6072207;23;20315;-75
2021/03/30 03:50:37;;;;;;;7.20;3.90;;;2.90;99.90;;;;;;6099580;23;20013;-75
2021/03/30 03:53:03;;;;;;;6.25;3.53;;;2.90;99.90;;;;;;6100034;23;20010;-74
2021/03/30 03:55:31;;;;;;;6.15;3.53;;;2.90;99.90;;;;;;6073628;23;20053;-75
2021/03/30 03:58:05;;;;;;;5.40;3.95;;;2.80;99.90;;;;;;6100040;23;20006;-75
2021/03/30 04:00:31;;;;;;;8.73;3.50;;;2.80;99.90;;;;;;6099083;23;20045;-75
2021/03/30 04:03:08;;;;;;;7.00;3.28;;;2.90;99.90;;;;;;6099173;23;20086;-75
2021/03/30 04:05:51;;;;;;;6.38;3.55;;;2.80;99.90;;;;;;6099555;23;20392;-75
2021/03/30 04:08:20;;;;;;;5.15;3.40;;;2.80;99.90;;;;;;6099738;23;20002;-75
2021/03/30 04:10:50;;;;;;;4.82;3.45;;;2.70;99.90;;;;;;6099148;23;20354;-74
2021/03/30 04:13:20;;;;;;;5.97;3.73;;;2.70;99.90;;;;;;6099369;23;20010;-74
2021/03/30 04:15:46;;;;;;;5.97;3.55;;;2.80;99.90;;;;;;6098954;23;20006;-75
2021/03/30 04:18:12;;;;;;;4.28;3.00;;;2.70;99.90;;;;;;6098753;23;20009;-75
2021/03/30 04:20:38;;;;;;;11.85;3.95;;;2.60;99.90;;;;;;6099314;23;20007;-75
2021/03/30 04:23:05;;;;;;;7.95;3.70;;;2.50;99.90;;;;;;6098688;23;20006;-75
2021/03/30 04:25:31;;;;;;;5.53;4.05;;;2.50;99.90;;;;;;6099324;23;20045;-75
2021/03/30 04:27:56;;;;;;;6.10;3.78;;;2.50;99.90;;;;;;6099502;23;20002;-76
2021/03/30 04:30:24;;;;;;;5.07;3.35;;;2.50;99.90;;;;;;6073676;23;20093;-76
2021/03/30 04:32:52;;;;;;;7.40;4.50;;;2.60;99.90;;;;;;6098968;23;20006;-75
2021/03/30 04:35:18;;;;;;;4.00;3.58;;;2.50;99.90;;;;;;6098945;23;20085;-76
2021/03/30 04:37:44;;;;;;;12.00;4.10;;;2.60;99.90;;;;;;6098870;23;20427;-75
2021/03/30 05:02:07;;;;;;;4.70;3.47;;;2.30;99.90;;;;;;5959999;24;20058;-73
2021/03/30 05:07:51;;;;;;;7.10;3.70;;;2.20;99.90;;;;;;5953903;24;20011;-72
2021/03/30 05:10:20;;;;;;;5.05;2.97;;;2.30;99.90;;;;;;5930792;24;20015;-71
2021/03/30 05:12:48;;;;;;;6.15;3.47;;;2.20;99.90;;;;;;6044112;23;20047;-72
2021/03/30 05:15:14;;;;;;;6.75;3.58;;;2.20;99.90;;;;;;6069976;23;20458;-72
2021/03/30 05:17:41;;;;;;;5.80;3.53;;;2.10;99.90;;;;;;6043733;23;20431;-72
2021/03/30 05:20:09;;;;;;;5.85;3.33;;;2.10;99.90;;;;;;6044323;23;20457;-72
2021/03/30 05:22:35;;;;;;;5.65;4.20;;;2.20;99.90;;;;;;6044273;23;20089;-72
2021/03/30 05:25:06;;;;;;;6.53;4.65;;;2.10;99.90;;;;;;6044419;23;20022;-72
2021/03/30 05:27:32;;;;;;;8.95;4.57;;;2.10;99.90;;;;;;6044269;23;20077;-73
2021/03/30 05:29:58;;;;;;;9.25;4.07;;;2.10;99.90;;;;;;6069578;23;20007;-72
2021/03/30 05:32:24;;;;;;;6.30;3.47;;;2.10;99.90;;;;;;6069910;23;20007;-72
2021/03/30 05:34:52;;;;;;;5.38;4.00;;;2.10;99.90;;;;;;6069453;23;20062;-72
2021/03/30 05:37:21;;;;;;;6.85;3.80;;;2.10;99.90;;;;;;6069806;23;20423;-72
2021/03/30 05:39:49;;;;;;;12.35;8.35;;;2.20;99.90;;;;;;6069739;23;20007;-72
2021/03/30 05:42:18;;;;;;;9.60;4.90;;;2.20;99.90;;;;;;6069279;23;20013;-72
2021/03/30 05:44:45;;;;;;;10.10;5.00;;;2.20;99.90;;;;;;6069220;23;20049;-72
2021/03/30 05:47:19;;;;;;;7.28;5.25;;;2.30;99.90;;;;;;6044040;23;20006;-72
2021/03/30 05:49:45;;;;;;;7.88;5.18;;;2.30;99.90;;;;;;6069479;23;20007;-72
2021/03/30 05:52:27;;;;;;;10.95;4.80;;;2.30;99.90;;;;;;6069024;23;20436;-74
2021/03/30 05:54:55;;;;;;;7.15;4.30;;;2.40;99.90;;;;;;6069121;23;20013;-74
2021/03/30 05:57:26;;;;;;;8.95;3.88;;;2.50;99.90;;;;;;6067231;23;19999;-74
2021/03/30 05:59:58;;;;;;;5.82;4.05;;;2.50;99.90;;;;;;6067612;23;20062;-74
2021/03/30 06:02:47;;;;;;;6.47;3.72;;;2.50;99.90;;;;;;6068209;23;20466;-74
2021/03/30 06:05:16;;;;;;;7.93;4.55;;;2.50;99.90;;;;;;6068315;23;20038;-74
2021/03/30 06:07:42;;;;;;;4.85;3.83;;;2.60;99.90;;;;;;6043886;23;20011;-74
2021/03/30 06:10:11;;;;;;;5.63;3.88;;;2.70;99.90;;;;;;6069279;23;20439;-74
2021/03/30 06:12:37;;;;;;;8.60;3.70;;;2.80;99.90;;;;;;6069363;23;20070;-74
2021/03/30 06:15:06;;;;;;;6.75;2.92;;;3.10;99.90;;;;;;6069388;23;20081;-74
2021/03/30 06:17:49;;;;;;;5.70;3.47;;;3.80;99.90;;;;;;6069017;23;20007;-74
2021/03/30 06:20:30;;;;;;;5.10;3.42;;;4.80;99.90;;;;;;6069520;23;20420;-74
2021/03/30 06:22:59;;;;;;;8.20;4.65;;;6.80;99.90;;;;;;6069103;23;20011;-74
2021/03/30 06:25:35;;;;;;;4.30;3.33;;;7.70;99.90;;;;;;6069331;23;20010;-74
2021/03/30 06:28:20;;;;;;;8.57;3.72;;;7.60;99.90;;;;;;6069792;23;20037;-74
2021/03/30 06:31:07;;;;;;;5.43;3.60;;;6.50;99.90;;;;;;6069337;23;19999;-74
2021/03/30 06:33:35;;;;;;;5.53;3.17;;;5.70;99.90;;;;;;6069516;23;20387;-73
2021/03/30 06:36:19;;;;;;;6.07;4.18;;;5.40;99.90;;;;;;6069267;23;20003;-74
2021/03/30 06:39:03;;;;;;;8.63;4.03;;;5.00;99.90;;;;;;6069083;23;20431;-74
2021/03/30 06:41:44;;;;;;;7.25;4.07;;;4.70;99.90;;;;;;6069928;23;20037;-74
2021/03/30 06:44:30;;;;;;;7.80;3.90;;;4.60;99.90;;;;;;6069559;23;20007;-74
2021/03/30 06:47:11;;;;;;;5.32;3.60;;;4.60;99.90;;;;;;6044856;23;20062;-74
2021/03/30 06:49:38;;;;;;;8.77;4.00;;;4.50;99.90;;;;;;6069145;23;20003;-74
2021/03/30 06:52:15;;;;;;;8.65;4.35;;;4.60;99.90;;;;;;6068812;23;20014;-74
2021/03/30 06:54:56;;;;;;;9.55;4.63;;;4.50;99.90;;;;;;6068774;23;20018;-74
2021/03/30 06:57:38;;;;;;;8.52;4.40;;;4.60;99.90;;;;;;6068681;23;19999;-74
2021/03/30 07:00:10;;;;;;;7.28;4.20;;;4.60;99.90;;;;;;6068961;23;20435;-74
2021/03/30 07:02:49;;;;;;;10.20;4.40;;;4.80;99.90;;;;;;6069102;23;20059;-73
2021/03/30 07:05:38;;;;;;;7.13;4.18;;;4.90;99.90;;;;;;6043114;23;20086;-74
2021/03/30 07:08:11;;;;;;;8.05;4.55;;;5.10;99.90;;;;;;6069535;23;20038;-73
2021/03/30 07:10:45;;;;;;;8.45;4.85;;;5.10;99.90;;;;;;6043380;23;20014;-73
2021/03/30 07:13:13;;;;;;;8.10;5.00;;;5.10;99.90;;;;;;6069483;23;20010;-74
2021/03/30 07:15:39;;;;;;;11.05;5.22;;;5.30;99.90;;;;;;6069058;23;20539;-73
2021/03/30 07:18:21;;;;;;;10.43;4.43;;;5.30;99.90;;;;;;6043820;23;20006;-73
2021/03/30 07:20:52;;;;;;;4.65;3.70;;;5.40;99.90;;;;;;6068665;23;20007;-74
2021/03/30 07:23:46;;;;;;;5.28;3.97;;;5.60;99.90;;;;;;6067688;23;20013;-73
2021/03/30 07:26:14;;;;;;;5.75;4.15;;;5.80;99.90;;;;;;6040228;23;20022;-74
2021/03/30 07:28:57;;;;;;;7.15;3.92;;;5.80;99.90;;;;;;6044657;23;20031;-74
2021/03/30 07:31:32;;;;;;;10.05;4.10;;;6.00;99.90;;;;;;6070835;23;20011;-73
2021/03/30 07:34:12;;;;;;;5.72;3.60;;;6.10;99.90;;;;;;6070191;23;20346;-74
2021/03/30 07:37:03;;;;;;;5.32;3.35;;;6.10;99.90;;;;;;6044780;23;20019;-74
2021/03/30 07:39:33;;;;;;;5.03;3.35;;;6.20;99.90;;;;;;6071155;23;20003;-74
2021/03/30 07:41:59;;;;;;;7.43;3.95;;;6.40;99.90;;;;;;6070445;23;20011;-74
2021/03/30 07:44:27;;;;;;;5.95;3.33;;;6.60;99.90;;;;;;6070390;23;20011;-74
2021/03/30 07:46:54;;;;;;;6.60;3.67;;;6.50;99.90;;;;;;6070796;23;20005;-74
2021/03/30 07:49:27;;;;;;;6.22;3.40;;;6.70;99.90;;;;;;6070203;23;20035;-74
2021/03/30 07:51:53;;;;;;;6.85;3.20;;;6.70;99.90;;;;;;6070072;23;20014;-73
2021/03/30 07:54:19;;;;;;;5.85;3.10;;;6.80;99.90;;;;;;6069506;23;20014;-74
2021/03/30 07:56:45;;;;;;;5.53;3.35;;;6.80;99.90;;;;;;6044616;23;20008;-74
2021/03/30 07:59:48;;;;;;;8.10;3.03;;;7.00;99.90;;;;;;6044871;23;20014;-74
2021/03/30 08:02:18;;;;;;;6.35;3.20;;;7.10;99.90;;;;;;6098898;23;20015;-74
2021/03/30 08:05:08;;;;;;;13.85;4.18;;;7.40;99.90;;;;;;6098569;23;20492;-74
2021/03/30 08:08:22;;;;;;;46.13;4.50;;;7.70;99.90;;;;;;6099673;23;20014;-73
2021/03/30 08:10:51;;;;;;;23.75;4.10;;;8.00;99.90;;;;;;6036256;23;20060;-74
2021/03/30 08:13:34;;;;;;;32.20;4.90;;;8.10;99.90;;;;;;6098867;23;20010;-74
2021/03/30 08:16:06;;;;;;;43.50;3.90;;;8.20;99.90;;;;;;6099639;23;20002;-73
2021/03/30 08:18:41;;;;;;;23.08;3.88;;;8.30;99.90;;;;;;6099223;23;20006;-73
2021/03/30 08:21:09;;;;;;;34.40;5.03;;;8.50;99.90;;;;;;6099564;23;20021;-74
2021/03/30 08:24:01;;;;;;;36.53;5.85;;;8.70;99.90;;;;;;6073477;23;20014;-74
2021/03/30 08:26:30;;;;;;;40.58;4.20;;;8.80;99.90;;;;;;6031105;23;20054;-74
2021/03/30 08:29:05;;;;;;;29.25;3.80;;;8.90;99.90;;;;;;6098415;23;20498;-74
2021/03/30 08:31:39;;;;;;;50.63;7.70;;;9.30;99.90;;;;;;6073131;23;20032;-74
2021/03/30 08:34:28;;;;;;;28.80;6.07;;;9.40;99.90;;;;;;6072856;23;20013;-74
2021/03/30 08:36:58;;;;;;;17.60;4.85;;;9.70;99.90;;;;;;6098436;23;20347;-74
2021/03/30 08:39:24;;;;;;;18.83;4.93;;;9.80;99.90;;;;;;6073017;23;20010;-74
2021/03/30 08:41:52;;;;;;;10.55;3.65;;;9.90;99.90;;;;;;6098222;23;20053;-74
2021/03/30 08:44:41;;;;;;;6.18;4.35;;;10.40;99.90;;;;;;6098701;23;20069;-74
2021/03/30 08:47:08;;;;;;;8.90;5.80;;;10.40;99.90;;;;;;6098976;23;20387;-74
2021/03/30 08:49:39;;;;;;;9.20;5.28;;;10.60;99.20;;;;;;6073378;23;20010;-74
2021/03/30 08:52:07;;;;;;;13.15;7.53;;;10.80;99.40;;;;;;6099159;23;20010;-74
2021/03/30 08:54:37;;;;;;;14.82;6.60;;;11.40;97.70;;;;;;6098580;23;20029;-74
2021/03/30 08:57:09;;;;;;;9.15;6.18;;;11.70;96.00;;;;;;6098799;23;20010;-74
2021/03/30 08:59:35;;;;;;;11.68;7.30;;;12.00;94.10;;;;;;6099169;23;20007;-74
2021/03/30 09:02:07;;;;;;;11.85;7.80;;;12.00;93.50;;;;;;6072032;23;20470;-74
2021/03/30 09:04:40;;;;;;;17.77;7.82;;;12.20;93.10;;;;;;6069708;23;20163;-74
2021/03/30 09:07:07;;;;;;;10.68;7.68;;;12.10;94.30;;;;;;6070020;23;20039;-74
2021/03/30 09:09:34;;;;;;;9.35;6.93;;;12.20;92.70;;;;;;6070075;23;20620;-74
2021/03/30 09:12:06;;;;;;;14.23;7.97;;;12.40;91.20;;;;;;6070111;23;20038;-74
2021/03/30 09:15:37;;;;;;;;;;;;;;;;;;;;;
2021/03/30 09:25:50;;;;;;;10.23;5.68;;;12.70;90.50;;;;;;5979954;24;20012;-74
2021/03/30 09:28:51;;;;;;;11.30;5.07;;;12.80;89.60;;;;;;5980453;24;20000;-74
2021/03/30 09:31:54;;;;;;;8.00;4.25;;;12.70;91.10;;;;;;5961897;24;20071;-73
2021/03/30 09:34:36;;;;;;;9.02;3.63;;;13.20;88.10;;;;;;5845254;24;20015;-75
2021/03/30 09:37:41;;;;;;;9.82;4.28;;;13.00;89.20;;;;;;6012921;23;20045;-74
2021/03/30 09:43:51;;;;;;;8.88;5.50;;;13.20;90.30;;;;;;6013802;23;20027;-74
2021/03/30 09:46:48;;;;;;;9.05;5.32;;;13.40;88.00;;;;;;6042851;23;20081;-74
2021/03/30 09:56:22;;;;;;;7.68;4.47;;;13.50;89.20;;;;;;5950563;24;20052;-74
2021/03/30 09:58:57;;;;;;;5.38;2.83;;;13.80;85.70;;;;;;5928788;24;20473;-74
2021/03/30 10:01:35;;;;;;;8.27;3.10;;;13.80;80.80;;;;;;6011813;23;20077;-74
2021/03/30 10:04:02;;;;;;;6.28;4.13;;;14.10;82.40;;;;;;6070376;23;20026;-74
2021/03/30 10:06:29;;;;;;;7.05;2.85;;;14.20;81.30;;;;;;6072452;23;20006;-74
2021/03/30 10:09:07;;;;;;;5.75;2.50;;;14.30;79.20;;;;;;6096351;23;20006;-74
2021/03/30 10:11:34;;;;;;;7.03;2.60;;;14.40;78.90;;;;;;6071651;23;20454;-74
2021/03/30 10:14:15;;;;;;;4.32;2.92;;;14.30;81.10;;;;;;6073216;23;20017;-74
2021/03/30 10:16:42;;;;;;;9.65;2.63;;;14.40;75.70;;;;;;6098522;23;19998;-74
2021/03/30 10:19:09;;;;;;;4.80;2.40;;;14.20;79.80;;;;;;6097926;23;20009;-74
2021/03/30 10:21:36;;;;;;;6.13;2.78;;;14.20;78.00;;;;;;6098520;23;20069;-74
2021/03/30 10:24:13;;;;;;;7.82;2.67;;;14.20;79.80;;;;;;6097673;23;20025;-74
2021/03/30 10:26:39;;;;;;;6.63;2.53;;;14.50;78.70;;;;;;6098014;23;20002;-73
2021/03/30 10:29:11;;;;;;;3.80;2.53;;;14.60;76.20;;;;;;6098056;23;20030;-74
2021/03/30 10:34:26;;;;;;;;;;;14.80;76.10;;;;;;6098711;23;20014;-74
2021/03/30 10:36:54;;;;;;;8.98;2.80;;;14.90;75.40;;;;;;6097791;23;20357;-74
2021/03/30 10:39:42;;;;;;;8.98;2.97;;;14.60;76.90;;;;;;6071490;23;20010;-73
2021/03/30 10:42:16;;;;;;;6.43;2.65;;;14.80;76.70;;;;;;6096551;23;20013;-73
2021/03/30 10:44:47;;;;;;;6.10;2.38;;;14.80;74.50;;;;;;6096390;23;20006;-74
2021/03/30 10:47:16;;;;;;;5.20;2.28;;;15.00;72.90;;;;;;6097097;23;20002;-73
2021/03/30 10:49:44;;;;;;;4.22;2.60;;;14.90;74.30;;;;;;6096630;23;19999;-74
2021/03/30 10:52:16;;;;;;;9.30;2.55;;;15.00;72.60;;;;;;6097655;23;20106;-74
2021/03/30 10:54:42;;;;;;;4.63;2.33;;;14.90;74.80;;;;;;6097240;23;20002;-74
2021/03/30 10:57:14;;;;;;;5.05;2.60;;;15.10;72.90;;;;;;6072491;23;20331;-74
2021/03/30 10:59:41;;;;;;;6.53;3.15;;;15.10;71.00;;;;;;6097708;23;19998;-73
2021/03/30 11:02:07;;;;;;;10.65;2.97;;;15.00;72.30;;;;;;6097376;23;20022;-74
2021/03/30 11:04:33;;;;;;;4.25;2.00;;;15.30;69.90;;;;;;6097760;23;20121;-73
2021/03/30 11:06:59;;;;;;;7.80;2.53;;;15.30;70.60;;;;;;6097630;23;20124;-73
2021/03/30 11:09:25;;;;;;;10.55;2.45;;;15.20;70.00;;;;;;6097924;23;20009;-74
2021/03/30 11:11:53;;;;;;;7.65;2.60;;;15.20;67.80;;;;;;6096058;23;20085;-74
2021/03/30 11:14:20;;;;;;;8.27;2.35;;;15.20;70.00;;;;;;6070488;23;20033;-73
2021/03/30 11:16:45;;;;;;;8.05;2.50;;;15.30;70.10;;;;;;6096117;23;20422;-74
2021/03/30 11:19:13;;;;;;;6.97;2.90;;;15.40;69.20;;;;;;6095818;23;20006;-73
2021/03/30 11:21:39;;;;;;;6.72;2.15;;;15.40;67.10;;;;;;6095553;23;20026;-73
2021/03/30 11:24:06;;;;;;;5.22;2.50;;;15.60;65.60;;;;;;6096083;23;20021;-74
2021/03/30 11:26:32;;;;;;;6.72;2.85;;;15.40;66.90;;;;;;6096809;23;20435;-73
2021/03/30 11:29:00;;;;;;;7.15;2.63;;;15.30;67.60;;;;;;6097538;23;20002;-74
2021/03/30 11:31:41;;;;;;;6.90;2.70;;;15.40;68.00;;;;;;6095954;23;20002;-74
2021/03/30 11:34:17;;;;;;;4.45;2.17;;;15.60;67.40;;;;;;6096468;23;20017;-73
2021/03/30 11:36:45;;;;;;;7.55;2.30;;;15.60;66.50;;;;;;6097797;23;20011;-74
2021/03/30 11:39:11;;;;;;;12.43;2.80;;;15.80;64.00;;;;;;6096971;23;20014;-73
2021/03/30 11:41:37;;;;;;;9.20;2.58;;;15.90;63.40;;;;;;6095015;23;20681;-73
2021/03/30 11:44:03;;;;;;;6.72;2.50;;;15.80;63.10;;;;;;6096467;23;20387;-73
2021/03/30 11:46:29;;;;;;;11.02;2.58;;;15.80;63.90;;;;;;6096941;23;20006;-73
2021/03/30 11:48:55;;;;;;;8.95;2.20;;;15.90;63.70;;;;;;6091418;23;20006;-73
2021/03/30 11:51:21;;;;;;;13.05;2.85;;;15.80;64.60;;;;;;6095767;23;20033;-73
2021/03/30 11:53:47;;;;;;;9.32;2.75;;;16.00;63.20;;;;;;6081412;23;20430;-73
2021/03/30 11:56:13;;;;;;;9.50;3.15;;;16.00;63.30;;;;;;6094015;23;20073;-73
2021/03/30 11:58:39;;;;;;;11.02;2.78;;;16.00;63.20;;;;;;6093630;23;20030;-74
2021/03/30 12:01:10;;;;;;;10.77;2.55;;;16.00;62.40;;;;;;6094631;23;20454;-74
2021/03/30 12:03:37;;;;;;;9.68;2.83;;;16.10;61.50;;;;;;6095695;23;20014;-74
2021/03/30 12:06:06;;;;;;;8.88;2.80;;;16.20;60.70;;;;;;6071070;23;20009;-74
2021/03/30 12:08:33;;;;;;;7.57;3.58;;;16.00;61.60;;;;;;6097459;23;20006;-74
2021/03/30 12:11:00;;;;;;;9.82;3.00;;;15.90;62.80;;;;;;6098122;23;20002;-74
2021/03/30 12:13:26;;;;;;;8.88;2.70;;;16.20;60.90;;;;;;6099296;23;20017;-74
2021/03/30 12:15:52;;;;;;;8.20;2.72;;;16.40;61.60;;;;;;6073179;23;20002;-74
2021/03/30 12:18:18;;;;;;;11.93;3.28;;;16.40;59.80;;;;;;6099385;23;20007;-74
2021/03/30 12:20:44;;;;;;;9.68;2.97;;;16.50;60.50;;;;;;6099603;23;20093;-74
2021/03/30 12:23:11;;;;;;;14.70;3.13;;;16.30;61.50;;;;;;6098168;23;20015;-74
2021/03/30 12:25:37;;;;;;;11.15;3.03;;;16.30;61.60;;;;;;6073239;23;20057;-74
2021/03/30 12:28:03;;;;;;;10.43;3.53;;;16.20;62.70;;;;;;6073240;23;20010;-74
2021/03/30 12:30:29;;;;;;;10.20;2.80;;;16.50;61.50;;;;;;6098544;23;20002;-74
2021/03/30 12:32:55;;;;;;;10.75;2.88;;;16.60;60.00;;;;;;6097865;23;20010;-75
2021/03/30 12:35:21;;;;;;;12.25;2.75;;;16.60;61.20;;;;;;6098439;23;20547;-74
2021/03/30 12:37:47;;;;;;;14.68;3.17;;;16.30;62.40;;;;;;6098754;23;20335;-74
2021/03/30 12:40:13;;;;;;;14.45;3.60;;;16.50;62.50;;;;;;6098233;23;20038;-74
2021/03/30 12:42:39;;;;;;;12.75;3.13;;;16.60;62.10;;;;;;6098958;23;20015;-74
2021/03/30 12:45:06;;;;;;;10.25;2.63;;;16.60;62.40;;;;;;6072432;23;20010;-74
2021/03/30 12:47:32;;;;;;;15.55;3.13;;;16.70;61.90;;;;;;6097966;23;20006;-74
2021/03/30 12:49:59;;;;;;;7.00;2.38;;;16.80;62.70;;;;;;6097777;23;20430;-74
2021/03/30 12:52:27;;;;;;;8.43;3.05;;;16.70;60.90;;;;;;6071969;23;20010;-74
2021/03/30 12:55:05;;;;;;;16.38;3.75;;;16.70;60.50;;;;;;6098348;23;20014;-74
2021/03/30 12:57:31;;;;;;;13.98;2.92;;;16.90;57.50;;;;;;6071604;23;20010;-74
2021/03/30 13:00:12;;;;;;;8.35;2.60;;;16.80;58.00;;;;;;6098221;23;20045;-74
2021/03/30 13:02:41;;;;;;;10.38;2.90;;;16.80;58.60;;;;;;6097872;23;20046;-75
2021/03/30 13:05:08;;;;;;;11.23;2.47;;;16.90;59.40;;;;;;6072925;23;20088;-74
2021/03/30 13:07:34;;;;;;;7.38;2.33;;;16.70;59.00;;;;;;6098825;23;20017;-74
2021/03/30 13:10:00;;;;;;;15.25;2.83;;;16.80;58.70;;;;;;6099013;23;20089;-74
2021/03/30 13:12:26;;;;;;;8.07;2.70;;;16.80;59.70;;;;;;6098047;23;20014;-74
2021/03/30 13:14:52;;;;;;;14.25;3.15;;;16.90;60.20;;;;;;6098463;23;20030;-74
2021/03/30 13:17:18;;;;;;;10.60;3.03;;;17.10;59.70;;;;;;6073055;23;20006;-74
2021/03/30 13:19:44;;;;;;;10.77;3.13;;;17.00;58.60;;;;;;6097662;23;20069;-74
2021/03/30 13:22:10;;;;;;;10.75;3.30;;;17.10;59.90;;;;;;6097946;23;20469;-74
2021/03/30 13:24:39;;;;;;;17.45;4.70;;;17.10;59.50;;;;;;6097106;23;20315;-74
2021/03/30 13:27:08;;;;;;;9.80;4.00;;;16.80;60.80;;;;;;6097565;23;20002;-74
2021/03/30 13:29:47;;;;;;;19.27;4.00;;;16.90;60.80;;;;;;6072882;23;20057;-76
2021/03/30 13:32:22;;;;;;;12.63;3.55;;;17.00;61.10;;;;;;6098498;23;20085;-77
2021/03/30 13:34:52;;;;;;;13.70;4.28;;;17.00;60.20;;;;;;6071795;23;20034;-76
2021/03/30 13:37:46;;;;;;;13.65;3.80;;;17.00;60.10;;;;;;6072073;23;20011;-76
2021/03/30 13:40:26;;;;;;;8.98;3.08;;;17.10;61.30;;;;;;6071417;23;20006;-76
2021/03/30 13:42:55;;;;;;;10.53;3.37;;;17.00;60.70;;;;;;6069767;23;20018;-76
2021/03/30 13:45:32;;;;;;;13.95;3.05;;;16.90;61.80;;;;;;6072016;23;20273;-76
2021/03/30 13:48:05;;;;;;;8.40;2.88;;;17.10;60.10;;;;;;6072382;23;20010;-76
2021/03/30 13:50:51;;;;;;;9.60;2.78;;;17.10;59.80;;;;;;6072863;23;20029;-76
2021/03/30 13:53:24;;;;;;;8.98;2.85;;;17.10;60.20;;;;;;6071470;23;20034;-76
2021/03/30 13:56:06;;;;;;;10.27;3.70;;;17.20;60.70;;;;;;6072274;23;20085;-76
2021/03/30 13:58:37;;;;;;;15.45;3.38;;;17.20;59.50;;;;;;6071705;23;20040;-76